Terminal Aerodrome Forecast
Issued by NWS

Home | Current Version | Previous Version | Text Only | Print | Product List | Glossary On
Versions: 1 2 3 4 5 6 7 8 9 10 11 12 13 14 15 16 17 18 19 20 21 22 23 24 25 26 27 28 29 30 31 32
000
FTUS44 KLIX 290520
TAFHUM
TAF
KHUM 290520Z 2906/3006 VRB03KT P6SM BKN100
     FM290900 VRB06KT P6SM VCSH BKN080 BKN150
      TEMPO 2909/2913 4SM -TSRA BKN060CB
     FM291500 22008KT P6SM BKN110
     FM292300 18007KT P6SM BKN150=

USA.gov is the U.S. government's official web portal to all federal, state and local government web resources and services.